sensor_id;sensor_type;location;lat;lon;timestamp;P1;durP1;ratioP1;P2;durP2;ratioP2
21438;SDS011;10880;50.302;18.736;2022-11-20T00:01:28;362.17;;;116.97;;
21438;SDS011;10880;50.302;18.736;2022-11-20T00:03:55;239.07;;;73.37;;
21438;SDS011;10880;50.302;18.736;2022-11-20T00:06:24;169.30;;;57.30;;
21438;SDS011;10880;50.302;18.736;2022-11-20T00:08:53;361.37;;;116.53;;
21438;SDS011;10880;50.302;18.736;2022-11-20T00:11:22;453.37;;;148.90;;
21438;SDS011;10880;50.302;18.736;2022-11-20T00:13:51;368.17;;;117.70;;
21438;SDS011;10880;50.302;18.736;2022-11-20T00:16:22;299.70;;;95.50;;
21438;SDS011;10880;50.302;18.736;2022-11-20T00:18:52;218.23;;;69.07;;
21438;SDS011;10880;50.302;18.736;2022-11-20T00:21:21;320.30;;;104.80;;
21438;SDS011;10880;50.302;18.736;2022-11-20T00:23:50;514.93;;;171.90;;
21438;SDS011;10880;50.302;18.736;2022-11-20T00:26:20;460.93;;;146.33;;
21438;SDS011;10880;50.302;18.736;2022-11-20T00:28:52;433.53;;;135.57;;
21438;SDS011;10880;50.302;18.736;2022-11-20T00:31:24;300.70;;;94.23;;
21438;SDS011;10880;50.302;18.736;2022-11-20T00:33:51;198.17;;;64.27;;
21438;SDS011;10880;50.302;18.736;2022-11-20T00:36:19;267.77;;;85.37;;
21438;SDS011;10880;50.302;18.736;2022-11-20T00:38:47;461.37;;;148.47;;
21438;SDS011;10880;50.302;18.736;2022-11-20T00:41:21;533.17;;;170.67;;
21438;SDS011;10880;50.302;18.736;2022-11-20T00:43:48;502.50;;;152.53;;
21438;SDS011;10880;50.302;18.736;2022-11-20T00:46:17;470.27;;;141.47;;
21438;SDS011;10880;50.302;18.736;2022-11-20T00:48:46;361.50;;;111.93;;
21438;SDS011;10880;50.302;18.736;2022-11-20T00:51:15;314.03;;;101.57;;
21438;SDS011;10880;50.302;18.736;2022-11-20T00:53:44;312.17;;;94.00;;
21438;SDS011;10880;50.302;18.736;2022-11-20T00:56:12;185.43;;;60.80;;
21438;SDS011;10880;50.302;18.736;2022-11-20T00:58:45;156.13;;;48.37;;
21438;SDS011;10880;50.302;18.736;2022-11-20T01:03:42;480.67;;;149.77;;
21438;SDS011;10880;50.302;18.736;2022-11-20T01:06:14;413.57;;;127.40;;
21438;SDS011;10880;50.302;18.736;2022-11-20T01:08:43;320.23;;;100.77;;
21438;SDS011;10880;50.302;18.736;2022-11-20T01:11:16;243.07;;;74.93;;
21438;SDS011;10880;50.302;18.736;2022-11-20T01:13:45;323.33;;;99.10;;
21438;SDS011;10880;50.302;18.736;2022-11-20T01:16:16;406.73;;;126.33;;
21438;SDS011;10880;50.302;18.736;2022-11-20T01:18:51;504.73;;;158.80;;
21438;SDS011;10880;50.302;18.736;2022-11-20T01:21:21;418.37;;;135.43;;
21438;SDS011;10880;50.302;18.736;2022-11-20T01:23:52;319.73;;;101.10;;
21438;SDS011;10880;50.302;18.736;2022-11-20T01:26:20;281.23;;;88.00;;
21438;SDS011;10880;50.302;18.736;2022-11-20T01:28:48;288.10;;;92.87;;
21438;SDS011;10880;50.302;18.736;2022-11-20T01:33:44;463.57;;;141.07;;
21438;SDS011;10880;50.302;18.736;2022-11-20T01:36:12;393.27;;;125.63;;
21438;SDS011;10880;50.302;18.736;2022-11-20T01:38:40;257.63;;;83.37;;
21438;SDS011;10880;50.302;18.736;2022-11-20T01:41:10;172.53;;;56.80;;
21438;SDS011;10880;50.302;18.736;2022-11-20T01:43:57;167.30;;;55.37;;
21438;SDS011;10880;50.302;18.736;2022-11-20T01:46:24;275.27;;;89.53;;
21438;SDS011;10880;50.302;18.736;2022-11-20T01:51:39;142.53;;;48.70;;
21438;SDS011;10880;50.302;18.736;2022-11-20T01:54:08;172.60;;;55.87;;
21438;SDS011;10880;50.302;18.736;2022-11-20T01:56:39;300.90;;;96.57;;
21438;SDS011;10880;50.302;18.736;2022-11-20T01:59:08;257.80;;;84.63;;
21438;SDS011;10880;50.302;18.736;2022-11-20T02:01:38;326.17;;;105.13;;
21438;SDS011;10880;50.302;18.736;2022-11-20T02:04:05;429.33;;;137.73;;
21438;SDS011;10880;50.302;18.736;2022-11-20T02:06:43;456.47;;;143.17;;
21438;SDS011;10880;50.302;18.736;2022-11-20T02:09:14;430.77;;;134.00;;
21438;SDS011;10880;50.302;18.736;2022-11-20T02:11:43;312.73;;;100.13;;
21438;SDS011;10880;50.302;18.736;2022-11-20T02:14:10;409.67;;;128.47;;
21438;SDS011;10880;50.302;18.736;2022-11-20T02:16:41;360.23;;;112.70;;
21438;SDS011;10880;50.302;18.736;2022-11-20T02:19:16;266.10;;;84.27;;
21438;SDS011;10880;50.302;18.736;2022-11-20T02:22:01;171.30;;;57.67;;
21438;SDS011;10880;50.302;18.736;2022-11-20T02:24:33;224.30;;;69.03;;
21438;SDS011;10880;50.302;18.736;2022-11-20T02:27:12;374.30;;;120.33;;
21438;SDS011;10880;50.302;18.736;2022-11-20T02:29:49;299.20;;;95.63;;
21438;SDS011;10880;50.302;18.736;2022-11-20T02:32:24;253.53;;;79.43;;
21438;SDS011;10880;50.302;18.736;2022-11-20T02:35:45;235.13;;;73.43;;
21438;SDS011;10880;50.302;18.736;2022-11-20T02:37:46;277.20;;;82.47;;
21438;SDS011;10880;50.302;18.736;2022-11-20T02:40:16;379.17;;;118.73;;
21438;SDS011;10880;50.302;18.736;2022-11-20T02:42:51;436.80;;;137.17;;
21438;SDS011;10880;50.302;18.736;2022-11-20T02:45:18;412.20;;;128.07;;
21438;SDS011;10880;50.302;18.736;2022-11-20T02:47:44;298.37;;;94.23;;
21438;SDS011;10880;50.302;18.736;2022-11-20T02:50:13;328.77;;;101.87;;
21438;SDS011;10880;50.302;18.736;2022-11-20T02:52:40;313.13;;;98.50;;
21438;SDS011;10880;50.302;18.736;2022-11-20T02:55:07;348.23;;;112.93;;
21438;SDS011;10880;50.302;18.736;2022-11-20T02:57:39;228.70;;;74.03;;
21438;SDS011;10880;50.302;18.736;2022-11-20T03:00:08;169.17;;;53.40;;
21438;SDS011;10880;50.302;18.736;2022-11-20T03:02:35;211.83;;;64.57;;
21438;SDS011;10880;50.302;18.736;2022-11-20T03:05:02;285.80;;;91.50;;
21438;SDS011;10880;50.302;18.736;2022-11-20T03:07:28;347.93;;;111.40;;
21438;SDS011;10880;50.302;18.736;2022-11-20T03:09:54;298.20;;;95.93;;
21438;SDS011;10880;50.302;18.736;2022-11-20T03:12:21;252.33;;;79.67;;
21438;SDS011;10880;50.302;18.736;2022-11-20T03:14:47;249.60;;;80.30;;
21438;SDS011;10880;50.302;18.736;2022-11-20T03:17:15;195.73;;;61.73;;
21438;SDS011;10880;50.302;18.736;2022-11-20T03:19:42;206.17;;;63.73;;
21438;SDS011;10880;50.302;18.736;2022-11-20T03:22:08;278.20;;;90.07;;
21438;SDS011;10880;50.302;18.736;2022-11-20T03:24:35;340.20;;;111.60;;
21438;SDS011;10880;50.302;18.736;2022-11-20T03:27:02;229.07;;;73.50;;
21438;SDS011;10880;50.302;18.736;2022-11-20T03:29:31;221.90;;;69.57;;
21438;SDS011;10880;50.302;18.736;2022-11-20T03:31:58;276.47;;;91.60;;
21438;SDS011;10880;50.302;18.736;2022-11-20T03:34:25;332.57;;;108.70;;
21438;SDS011;10880;50.302;18.736;2022-11-20T03:36:51;370.07;;;113.33;;
21438;SDS011;10880;50.302;18.736;2022-11-20T03:39:18;349.33;;;108.70;;
21438;SDS011;10880;50.302;18.736;2022-11-20T03:41:44;372.47;;;118.37;;
21438;SDS011;10880;50.302;18.736;2022-11-20T03:44:11;290.70;;;93.33;;
21438;SDS011;10880;50.302;18.736;2022-11-20T03:46:43;305.50;;;97.33;;
21438;SDS011;10880;50.302;18.736;2022-11-20T03:49:10;262.20;;;85.07;;
21438;SDS011;10880;50.302;18.736;2022-11-20T03:51:38;260.33;;;80.47;;
21438;SDS011;10880;50.302;18.736;2022-11-20T03:54:08;305.70;;;98.90;;
21438;SDS011;10880;50.302;18.736;2022-11-20T03:56:37;262.37;;;80.13;;
21438;SDS011;10880;50.302;18.736;2022-11-20T03:59:09;238.47;;;75.50;;
21438;SDS011;10880;50.302;18.736;2022-11-20T04:01:36;223.57;;;67.90;;
21438;SDS011;10880;50.302;18.736;2022-11-20T04:04:03;193.43;;;61.77;;
21438;SDS011;10880;50.302;18.736;2022-11-20T04:06:32;174.50;;;53.60;;
21438;SDS011;10880;50.302;18.736;2022-11-20T04:09:02;122.07;;;40.20;;
21438;SDS011;10880;50.302;18.736;2022-11-20T04:11:32;89.27;;;31.17;;
21438;SDS011;10880;50.302;18.736;2022-11-20T04:14:00;95.30;;;31.67;;
21438;SDS011;10880;50.302;18.736;2022-11-20T04:16:29;100.77;;;35.23;;
21438;SDS011;10880;50.302;18.736;2022-11-20T04:19:00;136.63;;;44.03;;
21438;SDS011;10880;50.302;18.736;2022-11-20T04:21:30;196.67;;;62.37;;
21438;SDS011;10880;50.302;18.736;2022-11-20T04:23:59;124.87;;;40.50;;
21438;SDS011;10880;50.302;18.736;2022-11-20T04:26:29;166.97;;;52.30;;
21438;SDS011;10880;50.302;18.736;2022-11-20T04:28:56;296.40;;;98.87;;
21438;SDS011;10880;50.302;18.736;2022-11-20T04:31:30;267.50;;;88.90;;
21438;SDS011;10880;50.302;18.736;2022-11-20T04:33:59;252.63;;;80.90;;
21438;SDS011;10880;50.302;18.736;2022-11-20T04:36:33;300.73;;;92.67;;
21438;SDS011;10880;50.302;18.736;2022-11-20T04:39:01;244.17;;;78.93;;
21438;SDS011;10880;50.302;18.736;2022-11-20T04:41:33;153.17;;;51.33;;
21438;SDS011;10880;50.302;18.736;2022-11-20T04:44:04;325.43;;;101.83;;
21438;SDS011;10880;50.302;18.736;2022-11-20T04:46:35;299.03;;;99.27;;
21438;SDS011;10880;50.302;18.736;2022-11-20T04:49:06;191.10;;;62.63;;
21438;SDS011;10880;50.302;18.736;2022-11-20T04:51:33;133.53;;;43.87;;
21438;SDS011;10880;50.302;18.736;2022-11-20T04:54:03;104.73;;;34.03;;
21438;SDS011;10880;50.302;18.736;2022-11-20T04:56:32;89.70;;;29.27;;
21438;SDS011;10880;50.302;18.736;2022-11-20T04:59:02;207.40;;;65.97;;
21438;SDS011;10880;50.302;18.736;2022-11-20T05:01:29;196.17;;;62.40;;
21438;SDS011;10880;50.302;18.736;2022-11-20T05:03:58;252.50;;;78.17;;
21438;SDS011;10880;50.302;18.736;2022-11-20T05:06:26;273.50;;;94.00;;
21438;SDS011;10880;50.302;18.736;2022-11-20T05:08:54;234.97;;;76.60;;
21438;SDS011;10880;50.302;18.736;2022-11-20T05:11:24;225.10;;;72.77;;
21438;SDS011;10880;50.302;18.736;2022-11-20T05:13:51;163.37;;;54.50;;
21438;SDS011;10880;50.302;18.736;2022-11-20T05:16:21;143.67;;;47.03;;
21438;SDS011;10880;50.302;18.736;2022-11-20T05:18:49;191.90;;;60.77;;
21438;SDS011;10880;50.302;18.736;2022-11-20T05:21:17;205.97;;;67.97;;
21438;SDS011;10880;50.302;18.736;2022-11-20T05:23:44;271.07;;;90.63;;
21438;SDS011;10880;50.302;18.736;2022-11-20T05:26:18;196.87;;;61.80;;
21438;SDS011;10880;50.302;18.736;2022-11-20T05:28:50;200.87;;;64.03;;
21438;SDS011;10880;50.302;18.736;2022-11-20T05:31:22;157.97;;;52.87;;
21438;SDS011;10880;50.302;18.736;2022-11-20T05:33:49;108.90;;;36.37;;
21438;SDS011;10880;50.302;18.736;2022-11-20T05:36:16;81.93;;;29.33;;
21438;SDS011;10880;50.302;18.736;2022-11-20T05:38:43;78.07;;;26.53;;
21438;SDS011;10880;50.302;18.736;2022-11-20T05:41:15;72.00;;;23.60;;
21438;SDS011;10880;50.302;18.736;2022-11-20T05:43:44;122.47;;;37.00;;
21438;SDS011;10880;50.302;18.736;2022-11-20T05:46:12;245.13;;;81.10;;
21438;SDS011;10880;50.302;18.736;2022-11-20T05:48:41;213.33;;;67.60;;
21438;SDS011;10880;50.302;18.736;2022-11-20T05:51:10;204.80;;;66.70;;
21438;SDS011;10880;50.302;18.736;2022-11-20T05:53:42;250.80;;;78.60;;
21438;SDS011;10880;50.302;18.736;2022-11-20T05:56:12;197.90;;;65.37;;
21438;SDS011;10880;50.302;18.736;2022-11-20T05:58:40;151.70;;;52.27;;
21438;SDS011;10880;50.302;18.736;2022-11-20T06:03:44;85.30;;;28.50;;
21438;SDS011;10880;50.302;18.736;2022-11-20T06:06:16;71.33;;;24.73;;
21438;SDS011;10880;50.302;18.736;2022-11-20T06:08:44;239.67;;;79.53;;
21438;SDS011;10880;50.302;18.736;2022-11-20T06:11:18;162.17;;;53.53;;
21438;SDS011;10880;50.302;18.736;2022-11-20T06:13:45;170.87;;;54.03;;
21438;SDS011;10880;50.302;18.736;2022-11-20T06:16:15;207.47;;;68.20;;
21438;SDS011;10880;50.302;18.736;2022-11-20T06:18:45;198.70;;;65.23;;
21438;SDS011;10880;50.302;18.736;2022-11-20T06:21:13;205.70;;;63.67;;
21438;SDS011;10880;50.302;18.736;2022-11-20T06:23:44;256.47;;;84.97;;
21438;SDS011;10880;50.302;18.736;2022-11-20T06:26:15;182.53;;;60.93;;
21438;SDS011;10880;50.302;18.736;2022-11-20T06:28:45;156.13;;;49.90;;
21438;SDS011;10880;50.302;18.736;2022-11-20T06:31:16;269.93;;;86.43;;
21438;SDS011;10880;50.302;18.736;2022-11-20T06:33:44;253.07;;;85.27;;
21438;SDS011;10880;50.302;18.736;2022-11-20T06:36:12;233.27;;;72.13;;
21438;SDS011;10880;50.302;18.736;2022-11-20T06:38:48;201.50;;;62.03;;
21438;SDS011;10880;50.302;18.736;2022-11-20T06:41:19;129.87;;;42.80;;
21438;SDS011;10880;50.302;18.736;2022-11-20T06:43:47;95.00;;;33.17;;
21438;SDS011;10880;50.302;18.736;2022-11-20T06:46:14;91.00;;;29.13;;
21438;SDS011;10880;50.302;18.736;2022-11-20T06:48:46;116.43;;;36.53;;
21438;SDS011;10880;50.302;18.736;2022-11-20T06:51:13;139.00;;;44.27;;
21438;SDS011;10880;50.302;18.736;2022-11-20T06:53:47;142.70;;;45.90;;
21438;SDS011;10880;50.302;18.736;2022-11-20T06:56:14;172.67;;;55.77;;
21438;SDS011;10880;50.302;18.736;2022-11-20T06:58:50;262.03;;;88.13;;
21438;SDS011;10880;50.302;18.736;2022-11-20T07:01:17;269.47;;;86.37;;
21438;SDS011;10880;50.302;18.736;2022-11-20T07:03:44;145.00;;;50.43;;
21438;SDS011;10880;50.302;18.736;2022-11-20T07:06:10;117.37;;;36.93;;
21438;SDS011;10880;50.302;18.736;2022-11-20T07:08:37;78.97;;;29.07;;
21438;SDS011;10880;50.302;18.736;2022-11-20T07:11:05;70.83;;;24.70;;
21438;SDS011;10880;50.302;18.736;2022-11-20T07:13:34;70.37;;;24.57;;
21438;SDS011;10880;50.302;18.736;2022-11-20T07:16:01;101.77;;;33.80;;
21438;SDS011;10880;50.302;18.736;2022-11-20T07:18:31;111.53;;;37.27;;
21438;SDS011;10880;50.302;18.736;2022-11-20T07:21:02;108.97;;;36.83;;
21438;SDS011;10880;50.302;18.736;2022-11-20T07:23:34;97.77;;;34.80;;
21438;SDS011;10880;50.302;18.736;2022-11-20T07:26:08;202.00;;;66.20;;
21438;SDS011;10880;50.302;18.736;2022-11-20T07:28:50;141.37;;;47.80;;
21438;SDS011;10880;50.302;18.736;2022-11-20T07:31:21;95.97;;;33.53;;
21438;SDS011;10880;50.302;18.736;2022-11-20T07:33:50;76.03;;;28.10;;
21438;SDS011;10880;50.302;18.736;2022-11-20T07:36:17;67.67;;;25.00;;
21438;SDS011;10880;50.302;18.736;2022-11-20T07:38:43;99.57;;;36.03;;
21438;SDS011;10880;50.302;18.736;2022-11-20T07:41:09;66.10;;;25.33;;
21438;SDS011;10880;50.302;18.736;2022-11-20T07:43:37;70.67;;;25.77;;
21438;SDS011;10880;50.302;18.736;2022-11-20T07:46:03;70.13;;;24.93;;
21438;SDS011;10880;50.302;18.736;2022-11-20T07:48:30;74.67;;;27.30;;
21438;SDS011;10880;50.302;18.736;2022-11-20T07:50:56;255.73;;;85.93;;
21438;SDS011;10880;50.302;18.736;2022-11-20T07:53:23;226.63;;;77.60;;
21438;SDS011;10880;50.302;18.736;2022-11-20T07:55:50;155.03;;;54.57;;
21438;SDS011;10880;50.302;18.736;2022-11-20T07:58:22;198.20;;;66.67;;
21438;SDS011;10880;50.302;18.736;2022-11-20T08:01:12;200.97;;;65.20;;
21438;SDS011;10880;50.302;18.736;2022-11-20T08:03:40;245.03;;;84.40;;
21438;SDS011;10880;50.302;18.736;2022-11-20T08:06:07;181.67;;;66.20;;
21438;SDS011;10880;50.302;18.736;2022-11-20T08:08:33;179.83;;;63.27;;
21438;SDS011;10880;50.302;18.736;2022-11-20T08:11:02;149.37;;;51.80;;
21438;SDS011;10880;50.302;18.736;2022-11-20T08:13:47;200.33;;;67.93;;
21438;SDS011;10880;50.302;18.736;2022-11-20T08:16:32;92.93;;;37.43;;
21438;SDS011;10880;50.302;18.736;2022-11-20T08:19:01;127.40;;;48.47;;
21438;SDS011;10880;50.302;18.736;2022-11-20T08:21:28;183.37;;;68.33;;
21438;SDS011;10880;50.302;18.736;2022-11-20T08:23:57;165.33;;;62.17;;
21438;SDS011;10880;50.302;18.736;2022-11-20T08:26:24;148.80;;;57.30;;
21438;SDS011;10880;50.302;18.736;2022-11-20T08:28:55;138.90;;;52.43;;
21438;SDS011;10880;50.302;18.736;2022-11-20T08:31:23;83.43;;;34.90;;
21438;SDS011;10880;50.302;18.736;2022-11-20T08:33:50;56.53;;;24.50;;
21438;SDS011;10880;50.302;18.736;2022-11-20T08:36:21;57.50;;;23.20;;
21438;SDS011;10880;50.302;18.736;2022-11-20T08:38:49;103.07;;;40.73;;
21438;SDS011;10880;50.302;18.736;2022-11-20T08:41:18;109.53;;;42.17;;
21438;SDS011;10880;50.302;18.736;2022-11-20T08:44:05;128.63;;;47.20;;
21438;SDS011;10880;50.302;18.736;2022-11-20T08:46:36;134.97;;;50.37;;
21438;SDS011;10880;50.302;18.736;2022-11-20T08:49:10;111.53;;;44.33;;
21438;SDS011;10880;50.302;18.736;2022-11-20T08:51:38;76.30;;;28.67;;
21438;SDS011;10880;50.302;18.736;2022-11-20T08:54:04;87.50;;;32.60;;
21438;SDS011;10880;50.302;18.736;2022-11-20T08:56:32;85.33;;;33.87;;
21438;SDS011;10880;50.302;18.736;2022-11-20T08:59:01;57.20;;;22.00;;
21438;SDS011;10880;50.302;18.736;2022-11-20T09:01:31;79.13;;;32.33;;
21438;SDS011;10880;50.302;18.736;2022-11-20T09:03:57;85.13;;;35.90;;
21438;SDS011;10880;50.302;18.736;2022-11-20T09:06:25;114.77;;;48.57;;
21438;SDS011;10880;50.302;18.736;2022-11-20T09:08:52;107.93;;;41.80;;
21438;SDS011;10880;50.302;18.736;2022-11-20T09:11:19;125.90;;;48.10;;
21438;SDS011;10880;50.302;18.736;2022-11-20T09:13:46;115.83;;;45.53;;
21438;SDS011;10880;50.302;18.736;2022-11-20T09:16:12;104.83;;;42.30;;
21438;SDS011;10880;50.302;18.736;2022-11-20T09:18:42;135.20;;;53.27;;
21438;SDS011;10880;50.302;18.736;2022-11-20T09:21:13;131.20;;;54.00;;
21438;SDS011;10880;50.302;18.736;2022-11-20T09:26:12;92.07;;;36.27;;
21438;SDS011;10880;50.302;18.736;2022-11-20T09:28:39;104.77;;;41.97;;
21438;SDS011;10880;50.302;18.736;2022-11-20T09:31:11;118.27;;;46.70;;
21438;SDS011;10880;50.302;18.736;2022-11-20T09:33:51;83.30;;;35.07;;
21438;SDS011;10880;50.302;18.736;2022-11-20T09:36:19;87.73;;;35.77;;
21438;SDS011;10880;50.302;18.736;2022-11-20T09:38:46;111.07;;;42.37;;
21438;SDS011;10880;50.302;18.736;2022-11-20T09:41:26;118.23;;;45.77;;
21438;SDS011;10880;50.302;18.736;2022-11-20T09:44:18;98.17;;;38.20;;
21438;SDS011;10880;50.302;18.736;2022-11-20T09:52:26;125.90;;;50.80;;
21438;SDS011;10880;50.302;18.736;2022-11-20T09:54:58;107.73;;;43.87;;
21438;SDS011;10880;50.302;18.736;2022-11-20T09:57:40;105.63;;;42.93;;
21438;SDS011;10880;50.302;18.736;2022-11-20T10:00:15;84.00;;;35.80;;
21438;SDS011;10880;50.302;18.736;2022-11-20T10:02:50;101.50;;;41.20;;
21438;SDS011;10880;50.302;18.736;2022-11-20T10:05:19;108.77;;;43.33;;
21438;SDS011;10880;50.302;18.736;2022-11-20T10:07:55;88.57;;;37.50;;
21438;SDS011;10880;50.302;18.736;2022-11-20T10:10:35;76.57;;;32.80;;
21438;SDS011;10880;50.302;18.736;2022-11-20T10:25:04;99.33;;;39.93;;
21438;SDS011;10880;50.302;18.736;2022-11-20T10:30:59;110.97;;;45.07;;
21438;SDS011;10880;50.302;18.736;2022-11-20T10:33:32;85.33;;;36.53;;
21438;SDS011;10880;50.302;18.736;2022-11-20T10:41:54;45.37;;;20.00;;
21438;SDS011;10880;50.302;18.736;2022-11-20T10:44:29;70.50;;;29.67;;
21438;SDS011;10880;50.302;18.736;2022-11-20T10:47:15;60.20;;;24.60;;
21438;SDS011;10880;50.302;18.736;2022-11-20T10:49:43;57.97;;;22.67;;
21438;SDS011;10880;50.302;18.736;2022-11-20T10:55:01;52.57;;;22.60;;
21438;SDS011;10880;50.302;18.736;2022-11-20T11:00:16;76.73;;;32.37;;
21438;SDS011;10880;50.302;18.736;2022-11-20T11:02:51;81.20;;;32.40;;
21438;SDS011;10880;50.302;18.736;2022-11-20T11:05:42;94.23;;;37.57;;
21438;SDS011;10880;50.302;18.736;2022-11-20T11:08:15;78.87;;;32.70;;
21438;SDS011;10880;50.302;18.736;2022-11-20T11:11:02;61.50;;;24.77;;
21438;SDS011;10880;50.302;18.736;2022-11-20T11:13:48;90.63;;;36.97;;
21438;SDS011;10880;50.302;18.736;2022-11-20T11:16:22;67.63;;;28.23;;
21438;SDS011;10880;50.302;18.736;2022-11-20T11:18:50;74.87;;;30.83;;
21438;SDS011;10880;50.302;18.736;2022-11-20T11:21:21;49.23;;;21.97;;
21438;SDS011;10880;50.302;18.736;2022-11-20T11:24:03;41.80;;;16.90;;
21438;SDS011;10880;50.302;18.736;2022-11-20T11:26:30;57.47;;;24.43;;
21438;SDS011;10880;50.302;18.736;2022-11-20T11:28:58;53.60;;;22.67;;
21438;SDS011;10880;50.302;18.736;2022-11-20T11:31:31;72.33;;;29.47;;
21438;SDS011;10880;50.302;18.736;2022-11-20T11:34:12;79.30;;;33.37;;
21438;SDS011;10880;50.302;18.736;2022-11-20T11:36:42;66.23;;;28.40;;
21438;SDS011;10880;50.302;18.736;2022-11-20T11:39:26;53.97;;;22.77;;
21438;SDS011;10880;50.302;18.736;2022-11-20T11:42:22;67.33;;;29.00;;
21438;SDS011;10880;50.302;18.736;2022-11-20T11:45:06;64.60;;;27.77;;
21438;SDS011;10880;50.302;18.736;2022-11-20T11:47:52;77.40;;;31.07;;
21438;SDS011;10880;50.302;18.736;2022-11-20T11:50:25;71.50;;;30.23;;
21438;SDS011;10880;50.302;18.736;2022-11-20T11:55:49;41.10;;;17.80;;
21438;SDS011;10880;50.302;18.736;2022-11-20T12:07:16;66.23;;;29.40;;
21438;SDS011;10880;50.302;18.736;2022-11-20T12:10:15;58.13;;;25.00;;
21438;SDS011;10880;50.302;18.736;2022-11-20T12:12:58;56.53;;;23.87;;
21438;SDS011;10880;50.302;18.736;2022-11-20T12:15:33;61.23;;;26.63;;
21438;SDS011;10880;50.302;18.736;2022-11-20T12:18:14;78.83;;;31.67;;
21438;SDS011;10880;50.302;18.736;2022-11-20T12:21:07;57.67;;;24.13;;
21438;SDS011;10880;50.302;18.736;2022-11-20T12:34:47;46.23;;;20.00;;
21438;SDS011;10880;50.302;18.736;2022-11-20T12:37:35;71.30;;;30.20;;
21438;SDS011;10880;50.302;18.736;2022-11-20T12:43:30;74.83;;;29.37;;
21438;SDS011;10880;50.302;18.736;2022-11-20T12:46:37;42.10;;;18.27;;
21438;SDS011;10880;50.302;18.736;2022-11-20T12:49:27;68.90;;;28.23;;
21438;SDS011;10880;50.302;18.736;2022-11-20T12:52:26;65.17;;;25.77;;
21438;SDS011;10880;50.302;18.736;2022-11-20T13:07:05;72.73;;;31.43;;
21438;SDS011;10880;50.302;18.736;2022-11-20T13:09:42;80.43;;;33.20;;
21438;SDS011;10880;50.302;18.736;2022-11-20T13:20:19;75.47;;;31.90;;
21438;SDS011;10880;50.302;18.736;2022-11-20T13:22:50;48.23;;;22.37;;
21438;SDS011;10880;50.302;18.736;2022-11-20T13:27:50;62.23;;;26.67;;
21438;SDS011;10880;50.302;18.736;2022-11-20T13:30:21;62.20;;;27.37;;
21438;SDS011;10880;50.302;18.736;2022-11-20T13:33:02;42.07;;;18.43;;
21438;SDS011;10880;50.302;18.736;2022-11-20T13:36:35;49.83;;;21.13;;
21438;SDS011;10880;50.302;18.736;2022-11-20T13:38:49;43.60;;;18.63;;
21438;SDS011;10880;50.302;18.736;2022-11-20T13:41:31;65.83;;;27.23;;
21438;SDS011;10880;50.302;18.736;2022-11-20T13:44:15;66.40;;;25.27;;
21438;SDS011;10880;50.302;18.736;2022-11-20T13:46:49;55.07;;;22.13;;
21438;SDS011;10880;50.302;18.736;2022-11-20T13:51:48;57.73;;;23.60;;
21438;SDS011;10880;50.302;18.736;2022-11-20T13:54:22;57.37;;;21.57;;
21438;SDS011;10880;50.302;18.736;2022-11-20T14:00:12;65.63;;;24.40;;
21438;SDS011;10880;50.302;18.736;2022-11-20T14:02:44;57.03;;;22.63;;
21438;SDS011;10880;50.302;18.736;2022-11-20T14:05:22;56.07;;;21.70;;
21438;SDS011;10880;50.302;18.736;2022-11-20T14:07:50;54.83;;;23.70;;
21438;SDS011;10880;50.302;18.736;2022-11-20T14:10:24;48.37;;;20.30;;
21438;SDS011;10880;50.302;18.736;2022-11-20T14:12:52;34.90;;;13.77;;
21438;SDS011;10880;50.302;18.736;2022-11-20T14:15:32;33.87;;;14.20;;
21438;SDS011;10880;50.302;18.736;2022-11-20T14:18:11;32.63;;;14.47;;
21438;SDS011;10880;50.302;18.736;2022-11-20T14:20:42;19.60;;;9.30;;
21438;SDS011;10880;50.302;18.736;2022-11-20T14:23:09;21.33;;;10.30;;
21438;SDS011;10880;50.302;18.736;2022-11-20T14:25:44;13.13;;;6.80;;
21438;SDS011;10880;50.302;18.736;2022-11-20T14:28:11;11.00;;;5.30;;
21438;SDS011;10880;50.302;18.736;2022-11-20T14:30:50;9.43;;;5.20;;
21438;SDS011;10880;50.302;18.736;2022-11-20T14:33:17;17.20;;;7.37;;
21438;SDS011;10880;50.302;18.736;2022-11-20T14:35:47;24.03;;;9.70;;
21438;SDS011;10880;50.302;18.736;2022-11-20T14:38:17;28.20;;;13.13;;
21438;SDS011;10880;50.302;18.736;2022-11-20T14:40:47;18.67;;;9.17;;
21438;SDS011;10880;50.302;18.736;2022-11-20T14:43:24;14.50;;;6.80;;
21438;SDS011;10880;50.302;18.736;2022-11-20T14:45:55;31.43;;;13.90;;
21438;SDS011;10880;50.302;18.736;2022-11-20T14:48:39;33.60;;;15.70;;
21438;SDS011;10880;50.302;18.736;2022-11-20T14:51:10;40.90;;;16.83;;
21438;SDS011;10880;50.302;18.736;2022-11-20T14:53:37;33.53;;;14.67;;
21438;SDS011;10880;50.302;18.736;2022-11-20T14:56:04;52.03;;;21.37;;
21438;SDS011;10880;50.302;18.736;2022-11-20T14:58:31;41.63;;;17.93;;
21438;SDS011;10880;50.302;18.736;2022-11-20T15:01:03;30.17;;;14.50;;
21438;SDS011;10880;50.302;18.736;2022-11-20T15:03:32;31.23;;;12.77;;
21438;SDS011;10880;50.302;18.736;2022-11-20T15:06:04;25.23;;;11.60;;
21438;SDS011;10880;50.302;18.736;2022-11-20T15:08:32;38.47;;;16.53;;
21438;SDS011;10880;50.302;18.736;2022-11-20T15:10:59;58.40;;;25.50;;
21438;SDS011;10880;50.302;18.736;2022-11-20T15:16:00;26.87;;;12.30;;
21438;SDS011;10880;50.302;18.736;2022-11-20T15:18:43;39.70;;;16.23;;
21438;SDS011;10880;50.302;18.736;2022-11-20T15:21:11;49.00;;;21.50;;
21438;SDS011;10880;50.302;18.736;2022-11-20T15:23:39;39.80;;;18.63;;
21438;SDS011;10880;50.302;18.736;2022-11-20T15:26:06;32.07;;;14.83;;
21438;SDS011;10880;50.302;18.736;2022-11-20T15:28:44;37.23;;;16.93;;
21438;SDS011;10880;50.302;18.736;2022-11-20T15:31:14;50.33;;;22.03;;
21438;SDS011;10880;50.302;18.736;2022-11-20T15:33:41;33.03;;;15.17;;
21438;SDS011;10880;50.302;18.736;2022-11-20T15:36:08;55.43;;;23.87;;
21438;SDS011;10880;50.302;18.736;2022-11-20T15:38:36;47.43;;;20.97;;
21438;SDS011;10880;50.302;18.736;2022-11-20T15:41:03;39.57;;;18.03;;
21438;SDS011;10880;50.302;18.736;2022-11-20T15:43:29;31.67;;;14.37;;
21438;SDS011;10880;50.302;18.736;2022-11-20T15:46:00;44.17;;;18.00;;
21438;SDS011;10880;50.302;18.736;2022-11-20T15:48:49;46.07;;;19.10;;
21438;SDS011;10880;50.302;18.736;2022-11-20T15:53:56;53.93;;;22.17;;
21438;SDS011;10880;50.302;18.736;2022-11-20T15:56:23;47.43;;;21.17;;
21438;SDS011;10880;50.302;18.736;2022-11-20T15:58:49;40.57;;;18.30;;
21438;SDS011;10880;50.302;18.736;2022-11-20T16:01:18;32.77;;;15.23;;
21438;SDS011;10880;50.302;18.736;2022-11-20T16:03:46;39.97;;;16.77;;
21438;SDS011;10880;50.302;18.736;2022-11-20T16:06:12;22.13;;;10.37;;
21438;SDS011;10880;50.302;18.736;2022-11-20T16:08:39;22.70;;;11.20;;
21438;SDS011;10880;50.302;18.736;2022-11-20T16:11:06;28.07;;;13.27;;